createdAt,value
2023-03-01T00:02:02.352Z,9.00
2023-03-01T00:07:04.486Z,9.30
2023-03-01T00:12:07.296Z,6.93
2023-03-01T00:17:10.941Z,7.75
2023-03-01T00:22:13.192Z,9.43
2023-03-01T00:27:15.314Z,9.30
2023-03-01T00:32:18.914Z,8.23
2023-03-01T00:37:21.242Z,11.57
2023-03-01T00:42:23.337Z,8.63
2023-03-01T00:47:29.504Z,12.55
2023-03-01T00:52:31.637Z,12.70
2023-03-01T00:57:33.904Z,14.15
2023-03-01T01:02:37.461Z,12.60
2023-03-01T01:07:39.937Z,12.90
2023-03-01T01:12:42.074Z,12.88
2023-03-01T01:17:45.645Z,14.13
2023-03-01T01:22:47.796Z,17.33
2023-03-01T01:27:50.008Z,16.48
2023-03-01T01:32:53.581Z,17.92
2023-03-01T01:37:55.764Z,16.23
2023-03-01T01:42:57.845Z,15.15
2023-03-01T01:48:05.731Z,15.45
2023-03-01T01:53:12.200Z,14.25
2023-03-01T01:58:19.216Z,12.75
2023-03-01T02:08:31.902Z,12.85
2023-03-01T02:13:35.384Z,12.38
2023-03-01T02:18:39.595Z,15.43
2023-03-01T02:23:41.879Z,12.65
2023-03-01T02:28:46.626Z,11.95
2023-03-01T02:33:49.290Z,13.60
2023-03-01T02:38:54.597Z,14.43
2023-03-01T02:43:58.371Z,15.77
2023-03-01T02:49:00.650Z,15.40
2023-03-01T02:54:15.917Z,14.10
2023-03-01T02:59:22.352Z,13.20
2023-03-01T03:04:24.544Z,14.10
2023-03-01T03:09:26.738Z,13.77
2023-03-01T03:14:30.277Z,13.35
2023-03-01T03:19:32.369Z,13.68
2023-03-01T03:24:34.506Z,10.27
2023-03-01T03:29:38.020Z,10.68
2023-03-01T03:34:40.148Z,11.00
2023-03-01T03:39:42.296Z,10.93
2023-03-01T03:44:45.826Z,11.48
2023-03-01T03:49:47.917Z,12.55
2023-03-01T03:54:50.041Z,11.77
2023-03-01T03:59:53.550Z,10.85
2023-03-01T04:04:55.650Z,12.55
2023-03-01T04:09:57.783Z,11.65
2023-03-01T04:15:01.303Z,12.23
2023-03-01T04:20:03.565Z,11.63
2023-03-01T04:25:06.070Z,12.25
2023-03-01T04:30:11.277Z,13.93
2023-03-01T04:35:13.478Z,14.25
2023-03-01T04:40:15.760Z,13.13
2023-03-01T04:45:19.352Z,12.82
2023-03-01T04:50:22.196Z,14.43
2023-03-01T04:55:24.347Z,14.75
2023-03-01T05:00:27.928Z,14.68
2023-03-01T05:05:33.661Z,13.57
2023-03-01T05:10:37.377Z,14.35
2023-03-01T05:15:41.051Z,15.80
2023-03-01T05:20:43.217Z,15.07
2023-03-01T05:25:45.797Z,17.13
2023-03-01T05:30:49.355Z,13.35
2023-03-01T05:35:52.263Z,9.50
2023-03-01T05:40:54.422Z,13.05
2023-03-01T05:45:59.267Z,13.80
2023-03-01T05:51:01.483Z,11.55
2023-03-01T05:56:04.932Z,11.05
2023-03-01T06:01:13.301Z,12.57
2023-03-01T06:06:15.412Z,14.25
2023-03-01T06:11:17.573Z,15.35
2023-03-01T06:16:21.226Z,12.60
2023-03-01T06:21:23.463Z,13.32
2023-03-01T06:26:25.841Z,9.05
2023-03-01T06:31:29.537Z,15.55
2023-03-01T06:36:32.268Z,10.57
2023-03-01T06:41:34.823Z,9.48
2023-03-01T06:46:39.623Z,9.07
2023-03-01T06:51:41.807Z,9.27
2023-03-01T06:56:44.013Z,8.73
2023-03-01T07:01:47.670Z,12.35
2023-03-01T07:06:49.809Z,15.82
2023-03-01T07:11:52.490Z,11.75
2023-03-01T07:16:56.360Z,11.07
2023-03-01T07:21:58.517Z,12.32
2023-03-01T07:27:00.642Z,12.60
2023-03-01T07:32:04.924Z,10.68
2023-03-01T07:37:07.125Z,11.82
2023-03-01T07:42:09.320Z,12.50
2023-03-01T07:47:12.929Z,12.98
2023-03-01T07:52:15.181Z,11.10
2023-03-01T07:57:17.398Z,11.95
2023-03-01T08:02:20.921Z,11.05
2023-03-01T08:07:23.070Z,12.45
2023-03-01T08:12:25.310Z,12.07
2023-03-01T08:17:28.814Z,13.18
2023-03-01T08:22:30.957Z,12.60
2023-03-01T08:27:33.109Z,13.15
2023-03-01T08:32:39.725Z,10.90
2023-03-01T08:37:42.210Z,10.25
2023-03-01T08:42:44.657Z,10.18
2023-03-01T08:47:48.286Z,13.18
2023-03-01T08:52:50.413Z,32.70
2023-03-01T08:57:52.726Z,23.38
2023-03-01T09:02:56.477Z,11.23
2023-03-01T09:07:59.077Z,11.60
2023-03-01T09:13:01.306Z,9.25
2023-03-01T09:18:05.245Z,9.15
2023-03-01T09:23:07.458Z,8.15
2023-03-01T09:28:15.750Z,7.88
2023-03-01T09:33:28.622Z,9.30
2023-03-01T09:38:31.138Z,9.98
2023-03-01T09:48:51.784Z,9.65
2023-03-01T09:53:54.207Z,9.30
2023-03-01T09:59:00.743Z,9.45
2023-03-01T10:04:29.751Z,10.03
2023-03-01T10:09:35.288Z,10.82
2023-03-01T10:14:45.018Z,8.88
2023-03-01T10:19:48.683Z,9.02
2023-03-01T10:24:52.743Z,9.77
2023-03-01T10:30:03.629Z,8.73
2023-03-01T10:35:20.181Z,9.13
2023-03-01T10:40:22.338Z,8.48
2023-03-01T10:45:33.272Z,7.25
2023-03-01T10:50:38.146Z,7.28
2023-03-01T10:55:41.867Z,9.23
2023-03-01T11:00:49.628Z,8.80
2023-03-01T11:06:00.898Z,9.93
2023-03-01T11:11:18.027Z,8.55
2023-03-01T11:16:36.138Z,8.18
2023-03-01T11:21:44.279Z,8.55
2023-03-01T11:26:52.712Z,11.20
2023-03-01T11:31:59.164Z,10.15
2023-03-01T11:37:10.041Z,10.23
2023-03-01T11:42:19.649Z,11.45
2023-03-01T11:47:35.091Z,9.55
2023-03-01T11:52:49.653Z,10.18
2023-03-01T11:58:15.694Z,8.23
2023-03-01T12:03:31.160Z,10.02
2023-03-01T12:08:39.308Z,8.30
2023-03-01T12:14:12.070Z,8.10
2023-03-01T12:19:30.793Z,8.73
2023-03-01T12:24:56.605Z,8.68
2023-03-01T12:30:11.794Z,8.73
2023-03-01T12:35:44.059Z,8.48
2023-03-01T12:41:18.760Z,8.15
2023-03-01T12:46:29.993Z,9.40
2023-03-01T12:51:35.762Z,9.20
2023-03-01T12:56:40.061Z,8.02
2023-03-01T13:01:51.001Z,6.90
2023-03-01T13:07:06.162Z,6.45
2023-03-01T13:12:41.838Z,6.65
2023-03-01T13:17:46.863Z,7.15
2023-03-01T13:23:01.099Z,9.00
2023-03-01T13:28:40.133Z,10.02
2023-03-01T13:33:47.747Z,7.60
2023-03-01T13:38:57.959Z,9.55
2023-03-01T13:44:01.476Z,9.50
2023-03-01T13:49:05.302Z,9.77
2023-03-01T13:54:13.714Z,12.63
2023-03-01T13:59:18.303Z,9.35
2023-03-01T14:04:25.586Z,8.75
2023-03-01T14:14:49.554Z,8.23
2023-03-01T14:20:00.637Z,9.15
2023-03-01T14:25:05.770Z,10.00
2023-03-01T14:30:15.586Z,9.32
2023-03-01T14:35:24.884Z,7.68
2023-03-01T14:40:30.074Z,8.18
2023-03-01T14:45:32.466Z,8.77
2023-03-01T14:50:43.164Z,8.45
2023-03-01T14:55:49.062Z,8.32
2023-03-01T15:00:54.121Z,8.15
2023-03-01T15:05:58.353Z,12.48
2023-03-01T15:11:03.305Z,10.75
2023-03-01T15:16:12.188Z,9.88
2023-03-01T15:21:22.577Z,9.95
2023-03-01T15:26:28.841Z,10.88
2023-03-01T15:31:35.364Z,9.02
2023-03-01T15:36:47.312Z,9.10
2023-03-01T15:41:50.009Z,8.38
2023-03-01T15:46:52.496Z,8.00
2023-03-01T15:51:56.613Z,11.30
2023-03-01T15:56:58.871Z,8.45
2023-03-01T16:02:01.028Z,8.70
2023-03-01T16:07:06.118Z,8.43
2023-03-01T16:12:15.493Z,7.97
2023-03-01T16:17:17.924Z,8.52
2023-03-01T16:22:21.612Z,7.95
2023-03-01T16:27:23.830Z,8.60
2023-03-01T16:32:26.070Z,9.45
2023-03-01T16:37:33.044Z,8.57
2023-03-01T16:42:35.358Z,9.00
2023-03-01T16:47:37.553Z,7.78
2023-03-01T16:52:41.201Z,8.10
2023-03-01T16:57:43.430Z,8.95
2023-03-01T17:02:45.852Z,8.27
2023-03-01T17:07:49.384Z,8.68
2023-03-01T17:12:51.645Z,7.22
2023-03-01T17:17:53.871Z,7.25
2023-03-01T17:22:57.437Z,7.30
2023-03-01T17:27:59.630Z,8.32
2023-03-01T17:33:01.990Z,8.68
2023-03-01T17:38:06.284Z,6.70
2023-03-01T17:43:08.579Z,7.07
2023-03-01T17:48:11.262Z,8.70
2023-03-01T17:53:15.186Z,8.73
2023-03-01T17:58:17.361Z,9.02
2023-03-01T18:03:19.595Z,7.78
2023-03-01T18:08:23.197Z,7.93
2023-03-01T18:13:25.410Z,8.00
2023-03-01T18:18:28.066Z,7.43
2023-03-01T18:23:32.999Z,6.75
2023-03-01T18:28:35.766Z,7.93
2023-03-01T18:33:38.401Z,7.82
2023-03-01T18:38:41.967Z,7.03
2023-03-01T18:43:44.117Z,6.72
2023-03-01T18:48:46.399Z,6.22
2023-03-01T18:53:50.019Z,7.43
2023-03-01T18:58:52.121Z,7.40
2023-03-01T19:03:55.498Z,7.68
2023-03-01T19:08:59.184Z,6.72
2023-03-01T19:14:02.381Z,6.97
2023-03-01T19:19:06.517Z,6.30
2023-03-01T19:24:10.175Z,6.25
2023-03-01T19:29:12.341Z,6.95
2023-03-01T19:34:14.805Z,6.45
2023-03-01T19:39:18.529Z,5.35
2023-03-01T19:44:20.709Z,5.40
2023-03-01T19:49:22.887Z,6.05
2023-03-01T19:54:26.494Z,6.00
2023-03-01T19:59:28.645Z,6.38
2023-03-01T20:04:30.772Z,7.50
2023-03-01T20:09:34.332Z,7.18
2023-03-01T20:14:36.512Z,7.03
2023-03-01T20:19:38.783Z,8.00
2023-03-01T20:24:42.980Z,6.90
2023-03-01T20:29:45.152Z,8.18
2023-03-01T20:34:47.555Z,5.80
2023-03-01T20:39:51.072Z,5.22
2023-03-01T20:44:53.220Z,5.70
2023-03-01T20:49:55.366Z,5.53
2023-03-01T20:54:58.939Z,5.55
2023-03-01T21:00:01.445Z,5.95
2023-03-01T21:05:03.706Z,7.20
2023-03-01T21:10:08.256Z,7.45
2023-03-01T21:15:13.134Z,7.20
2023-03-01T21:20:18.747Z,8.60
2023-03-01T21:25:22.352Z,8.13
2023-03-01T21:30:24.511Z,8.32
2023-03-01T21:35:26.667Z,8.75
2023-03-01T21:40:31.051Z,9.55
2023-03-01T21:45:35.537Z,8.98
2023-03-01T21:50:37.701Z,7.70
2023-03-01T21:55:49.048Z,11.25
2023-03-01T22:00:51.290Z,11.88
2023-03-01T22:05:58.128Z,10.43
2023-03-01T22:11:02.633Z,11.00
2023-03-01T22:16:05.830Z,10.38
2023-03-01T22:21:09.042Z,10.77
2023-03-01T22:26:23.905Z,10.57
2023-03-01T22:31:27.651Z,12.77
2023-03-01T22:36:30.527Z,12.13
2023-03-01T22:41:36.270Z,11.73
2023-03-01T22:46:38.566Z,10.02
2023-03-01T22:51:42.410Z,9.75
2023-03-01T22:56:46.907Z,10.02
2023-03-01T23:01:49.622Z,9.45
2023-03-01T23:06:52.118Z,11.00
2023-03-01T23:11:55.649Z,11.95
2023-03-01T23:16:57.905Z,11.40
2023-03-01T23:22:00.428Z,13.52
2023-03-01T23:27:04.739Z,14.00
2023-03-01T23:32:07.098Z,13.55
2023-03-01T23:37:09.977Z,14.73
2023-03-01T23:42:13.549Z,15.85
2023-03-01T23:47:15.694Z,18.85
2023-03-01T23:52:17.825Z,19.17
2023-03-01T23:57:21.446Z,19.20
